Colton, Washington
Current Conditions -  °F | °C
As of 11:53 AM on Monday 26 Jan 2015 (Local Time) from KPUW Reporting Station
Clear Clear  
Wind Chill: 56°   Ceiling: Unl
Heat Index: 56°   Visibility: 10mi
Dew Point: 40°   Wind: 16mph
Humidity: 55%   Direction: 140°SE
Pressure: 30.08"   Gusts: NA
Location:  46.57°N, 117.13°W
Report Text: KPUW 261953Z AUTO 14014KT 10SM CLR 13/04 A3008 RMK AO2 SLP189 T01330044
Loading
Personal Weather Stations






























Interactive Weather Map New forecast layout! Learn more

10-Day Weather Forecast

Advertisements
Track Severe Weather on mobile